Bomar Field

About
Name: Bomar Field
Identifier:  SYI/KSYI
Serves:  Shelbyville, Tennessee
Owner:  City of Shelbyville
Public/Private:  Public
Local Time:  25. Aug 05:08 CDT
Description: Shelbyville Municipal Airport, is a city-owned public-use airport located four miles north of the central business district of Shelbyville, a city in Bedford County, Tennessee, United States.
Source: Wikipedia
Location
Shelbyville
  United States

Runways
Identifier Length (m/ft) Surface
18/36 5,503/5,503 Asphalt
Flights per Day
0 flights
Punctuality
50% (0 flights per day delayed)
Delay Average: 12 minutes
Current Weather
 22 C (Humidity: 94%)
  0kt (0km/h / 0mph) from 0°
  Few clouds at 9,000 feet (2,743 meter)
  16km (10 mi.)
 METAR KSYI 250935Z AUTO 00000KT 10SM FEW090 22/21 A3000 RMK A01

Current Flights

Departures
Number Departure To Airline
Arrivals
Number Arrival From Airline

Current Delays

Departures
N/A
Arrivals
N/A

Destinations

Top Destinations
Airport Flights
per week
Seats
per week
  Sikeston (SIK) 0 - 0 0

Airlines & Planes

Top Airlines
Airline Flights
per Day
Seats
per Day
  Nolinor Aviation 0 -
Top Plane Types
Model Flights Seats